KLM644 KJFK-EHAM
Flight info
| Callsign | KLM644 |
|---|---|
| Flight time | 6h 28m |
| Altitude | 35000 |
| Route | MERIT DCT HFD DCT PUT DCT WITCH DCT ALLEX N535B UMESI/M084F370 DCT 5130N05000W 5330N04000W 5430N03000W 5430N02000W DCT NEBIN DCT OLGON/N0481F390 DCT LIFFY DCT DOLAS L603 LAMSO |
| Aircraft | B77W/H-SDE1E2E3FGHIJ2J3J4J5M1RWXY/LB1D1 |
Departure
| Time | 2026-05-08 12:03 |
|---|---|
| Airport | John F. Kennedy International Airport (KJFK) |
Arrival
| Time | 2026-05-08 18:31 |
|---|---|
| Airport | Amsterdam Airport Schiphol (EHAM) |
| Time | Latitude | Longitude | Altitude | Speed | Heading |
|---|---|---|---|---|---|
| 2026-05-08 11:26 | 40.64037 | -73.78289 | 28 ft | 0 kts | 61° |
| 2026-05-08 11:53 | 40.64026 | -73.78315 | 26 ft | 4 kts | 61° |
| 2026-05-08 11:53 | 40.64016 | -73.78340 | 26 ft | 4 kts | 64° |
| 2026-05-08 11:54 | 40.64010 | -73.78371 | 26 ft | 4 kts | 108° |
| 2026-05-08 11:54 | 40.64024 | -73.78393 | 26 ft | 4 kts | 150° |
| 2026-05-08 11:54 | 40.64047 | -73.78411 | 27 ft | 4 kts | 150° |
| 2026-05-08 11:54 | 40.64062 | -73.78421 | 26 ft | 0 kts | 150° |
| 2026-05-08 11:58 | 40.64049 | -73.78412 | 27 ft | 6 kts | 150° |
| 2026-05-08 11:58 | 40.63979 | -73.78359 | 19 ft | 18 kts | 150° |
| 2026-05-08 11:58 | 40.63828 | -73.78289 | 28 ft | 28 kts | 171° |
| 2026-05-08 11:59 | 40.63549 | -73.78274 | 29 ft | 8 kts | 202° |
| 2026-05-08 11:59 | 40.63501 | -73.78238 | 30 ft | 9 kts | 126° |
| 2026-05-08 11:59 | 40.63449 | -73.78127 | 30 ft | 20 kts | 122° |
| 2026-05-08 11:59 | 40.63361 | -73.77926 | 29 ft | 27 kts | 120° |
| 2026-05-08 12:00 | 40.63264 | -73.77712 | 30 ft | 27 kts | 120° |
| 2026-05-08 12:00 | 40.63168 | -73.77497 | 35 ft | 27 kts | 121° |
| 2026-05-08 12:00 | 40.63071 | -73.77283 | 32 ft | 27 kts | 121° |
| 2026-05-08 12:00 | 40.62998 | -73.77121 | 29 ft | 13 kts | 121° |
| 2026-05-08 12:01 | 40.62940 | -73.77096 | 28 ft | 8 kts | 199° |
| 2026-05-08 12:01 | 40.62888 | -73.77132 | 29 ft | 9 kts | 210° |
| 2026-05-08 12:01 | 40.62831 | -73.77177 | 28 ft | 10 kts | 213° |
| 2026-05-08 12:01 | 40.62812 | -73.77206 | 28 ft | 3 kts | 257° |
| 2026-05-08 12:02 | 40.62824 | -73.77236 | 28 ft | 8 kts | 302° |
| 2026-05-08 12:02 | 40.62932 | -73.77468 | 32 ft | 61 kts | 301° |
| 2026-05-08 12:02 | 40.63264 | -73.78201 | 27 ft | 125 kts | 301° |
| 2026-05-08 12:02 | 40.63799 | -73.79382 | 29 ft | 173 kts | 301° |
| 2026-05-08 12:03 | 40.64448 | -73.80848 | 297 ft | 192 kts | 301° |
| 2026-05-08 12:03 | 40.65147 | -73.82436 | 826 ft | 204 kts | 300° |
| 2026-05-08 12:03 | 40.65835 | -73.84052 | 1765 ft | 199 kts | 299° |
| 2026-05-08 12:03 | 40.66452 | -73.85634 | 2682 ft | 194 kts | 299° |
| 2026-05-08 12:04 | 40.67090 | -73.87329 | 2961 ft | 219 kts | 298° |
| 2026-05-08 12:04 | 40.67764 | -73.89181 | 3547 ft | 229 kts | 297° |
| 2026-05-08 12:04 | 40.68726 | -73.90873 | 4038 ft | 238 kts | 324° |
| 2026-05-08 12:04 | 40.70290 | -73.91684 | 4721 ft | 250 kts | 352° |
| 2026-05-08 12:05 | 40.72041 | -73.91379 | 5446 ft | 261 kts | 18° |
| 2026-05-08 12:05 | 40.73620 | -73.90136 | 6208 ft | 270 kts | 33° |
| 2026-05-08 12:05 | 40.75059 | -73.88536 | 6939 ft | 276 kts | 36° |
| 2026-05-08 12:05 | 40.76489 | -73.86824 | 7712 ft | 279 kts | 37° |
| 2026-05-08 12:06 | 40.77927 | -73.85080 | 8461 ft | 282 kts | 36° |
| 2026-05-08 12:06 | 40.79383 | -73.83323 | 9247 ft | 285 kts | 36° |
| 2026-05-08 12:06 | 40.80861 | -73.81551 | 9985 ft | 289 kts | 35° |
| 2026-05-08 12:06 | 40.82380 | -73.79746 | 10479 ft | 302 kts | 35° |
| 2026-05-08 12:07 | 40.84015 | -73.77825 | 10686 ft | 327 kts | 35° |
| 2026-05-08 12:07 | 40.85783 | -73.75753 | 10877 ft | 352 kts | 36° |
| 2026-05-08 12:07 | 40.87670 | -73.73541 | 11190 ft | 372 kts | 36° |
| 2026-05-08 12:07 | 40.89639 | -73.71225 | 11827 ft | 384 kts | 36° |
| 2026-05-08 12:08 | 40.91654 | -73.68851 | 12646 ft | 392 kts | 36° |
| 2026-05-08 12:08 | 40.93709 | -73.66429 | 13528 ft | 399 kts | 36° |
| 2026-05-08 12:08 | 40.95806 | -73.63960 | 14316 ft | 407 kts | 36° |
| 2026-05-08 12:08 | 40.97937 | -73.61452 | 15093 ft | 414 kts | 36° |
| 2026-05-08 12:09 | 41.00114 | -73.58890 | 15897 ft | 420 kts | 36° |
| 2026-05-08 12:09 | 41.02309 | -73.56305 | 16735 ft | 425 kts | 36° |
| 2026-05-08 12:09 | 41.04508 | -73.53714 | 17538 ft | 431 kts | 35° |
| 2026-05-08 12:09 | 41.06769 | -73.51049 | 18297 ft | 438 kts | 35° |
| 2026-05-08 12:10 | 41.09065 | -73.48340 | 18962 ft | 445 kts | 35° |
| 2026-05-08 12:10 | 41.11394 | -73.45587 | 19665 ft | 449 kts | 35° |
| 2026-05-08 12:10 | 41.13744 | -73.42807 | 20350 ft | 455 kts | 35° |
| 2026-05-08 12:10 | 41.16119 | -73.39995 | 21015 ft | 460 kts | 34° |
| 2026-05-08 12:11 | 41.18521 | -73.37149 | 21669 ft | 466 kts | 34° |
| 2026-05-08 12:11 | 41.20955 | -73.34262 | 22334 ft | 472 kts | 34° |
| 2026-05-08 12:11 | 41.23416 | -73.31338 | 22959 ft | 477 kts | 34° |
| 2026-05-08 12:11 | 41.25878 | -73.28409 | 23582 ft | 483 kts | 34° |
| 2026-05-08 12:12 | 41.28390 | -73.25416 | 24079 ft | 488 kts | 34° |
| 2026-05-08 12:12 | 41.30933 | -73.22385 | 24586 ft | 493 kts | 34° |
| 2026-05-08 12:12 | 41.33505 | -73.19318 | 25059 ft | 498 kts | 34° |
| 2026-05-08 12:12 | 41.36061 | -73.16142 | 25510 ft | 508 kts | 38° |
| 2026-05-08 12:13 | 41.38427 | -73.12568 | 26086 ft | 517 kts | 45° |
| 2026-05-08 12:13 | 41.40565 | -73.08659 | 26617 ft | 527 kts | 51° |
| 2026-05-08 12:13 | 41.42463 | -73.04437 | 27050 ft | 534 kts | 54° |
| 2026-05-08 12:13 | 41.44302 | -73.00171 | 27445 ft | 540 kts | 54° |
| 2026-05-08 12:14 | 41.46200 | -72.95741 | 27870 ft | 545 kts | 54° |
| 2026-05-08 12:14 | 41.48068 | -72.91405 | 28236 ft | 550 kts | 54° |
| 2026-05-08 12:14 | 41.50001 | -72.86961 | 28590 ft | 555 kts | 54° |
| 2026-05-08 12:14 | 41.51955 | -72.82498 | 28979 ft | 559 kts | 54° |
| 2026-05-08 12:15 | 41.53928 | -72.78002 | 29349 ft | 562 kts | 53° |
| 2026-05-08 12:15 | 41.55913 | -72.73479 | 29715 ft | 566 kts | 53° |
| 2026-05-08 12:15 | 41.57897 | -72.68941 | 30153 ft | 567 kts | 54° |
| 2026-05-08 12:15 | 41.59885 | -72.64386 | 30581 ft | 566 kts | 54° |
| 2026-05-08 12:16 | 41.61858 | -72.59855 | 31075 ft | 563 kts | 54° |
| 2026-05-08 12:16 | 41.63834 | -72.55316 | 31481 ft | 564 kts | 54° |
| 2026-05-08 12:16 | 41.65795 | -72.50857 | 31862 ft | 563 kts | 53° |
| 2026-05-08 12:16 | 41.67802 | -72.46387 | 32539 ft | 556 kts | 53° |
| 2026-05-08 12:17 | 41.69791 | -72.41994 | 33264 ft | 549 kts | 53° |
| 2026-05-08 12:17 | 41.71774 | -72.37622 | 33695 ft | 549 kts | 53° |
| 2026-05-08 12:17 | 41.73760 | -72.33236 | 33982 ft | 551 kts | 54° |
| 2026-05-08 12:17 | 41.75746 | -72.28831 | 34234 ft | 552 kts | 54° |
| 2026-05-08 12:18 | 41.77725 | -72.24418 | 34501 ft | 553 kts | 54° |
| 2026-05-08 12:18 | 41.79703 | -72.19991 | 34782 ft | 553 kts | 54° |
| 2026-05-08 12:18 | 41.81687 | -72.15545 | 34896 ft | 557 kts | 54° |
| 2026-05-08 12:18 | 41.83681 | -72.11068 | 34952 ft | 557 kts | 55° |
| 2026-05-08 12:19 | 41.87617 | -72.02204 | 34929 ft | 549 kts | 55° |
| 2026-05-08 12:19 | 41.91497 | -71.93459 | 34931 ft | 547 kts | 55° |
| 2026-05-08 12:20 | 41.95621 | -71.84920 | 34923 ft | 542 kts | 47° |
| 2026-05-08 12:20 | 42.00661 | -71.77417 | 34937 ft | 540 kts | 38° |
| 2026-05-08 12:21 | 42.06101 | -71.70443 | 34932 ft | 541 kts | 38° |
| 2026-05-08 12:21 | 42.11547 | -71.63424 | 34928 ft | 542 kts | 38° |
| 2026-05-08 12:22 | 42.16920 | -71.56393 | 34925 ft | 542 kts | 39° |
| 2026-05-08 12:22 | 42.22308 | -71.49290 | 34920 ft | 541 kts | 39° |
| 2026-05-08 12:23 | 42.27684 | -71.42186 | 34921 ft | 540 kts | 39° |
| 2026-05-08 12:23 | 42.33046 | -71.35093 | 34916 ft | 539 kts | 39° |
| 2026-05-08 12:24 | 42.38397 | -71.27996 | 34910 ft | 538 kts | 39° |
| 2026-05-08 12:24 | 42.43732 | -71.20903 | 34923 ft | 537 kts | 39° |
| 2026-05-08 12:25 | 42.49058 | -71.13804 | 34933 ft | 536 kts | 40° |
| 2026-05-08 12:25 | 42.54341 | -71.06745 | 34918 ft | 536 kts | 40° |
| 2026-05-08 12:26 | 42.59644 | -70.99639 | 34914 ft | 535 kts | 40° |
| 2026-05-08 12:26 | 42.64937 | -70.92531 | 34926 ft | 535 kts | 40° |
| 2026-05-08 12:27 | 42.69876 | -70.84921 | 34906 ft | 540 kts | 51° |
| 2026-05-08 12:27 | 42.73996 | -70.76323 | 34910 ft | 542 kts | 54° |
| 2026-05-08 12:28 | 42.77960 | -70.67765 | 34924 ft | 532 kts | 54° |
| 2026-05-08 12:28 | 42.81964 | -70.59207 | 34899 ft | 541 kts | 54° |
| 2026-05-08 12:29 | 42.86058 | -70.50530 | 34872 ft | 547 kts | 54° |
| 2026-05-08 12:29 | 42.89005 | -70.44276 | 34900 ft | 547 kts | 54° |
| 2026-05-08 12:30 | 42.93118 | -70.35523 | 34901 ft | 547 kts | 55° |
| 2026-05-08 12:30 | 42.97214 | -70.26774 | 34891 ft | 546 kts | 55° |
| 2026-05-08 12:31 | 43.01287 | -70.18045 | 34865 ft | 543 kts | 55° |
| 2026-05-08 12:31 | 43.05312 | -70.09390 | 34873 ft | 533 kts | 55° |
| 2026-05-08 12:32 | 43.09262 | -70.00874 | 34876 ft | 528 kts | 55° |
| 2026-05-08 12:32 | 43.10313 | -69.98606 | 34900 ft | 531 kts | 55° |
| 2026-05-08 12:33 | 43.12367 | -69.94171 | 34902 ft | 536 kts | 55° |
| 2026-05-08 12:34 | 43.16398 | -69.85447 | 34881 ft | 547 kts | 56° |
| 2026-05-08 12:34 | 43.20478 | -69.76581 | 34890 ft | 550 kts | 56° |
| 2026-05-08 12:35 | 43.24552 | -69.67697 | 34882 ft | 550 kts | 56° |
| 2026-05-08 12:35 | 43.28613 | -69.58814 | 34879 ft | 548 kts | 56° |
| 2026-05-08 12:36 | 43.32649 | -69.49963 | 34885 ft | 546 kts | 56° |
| 2026-05-08 12:36 | 43.36660 | -69.41142 | 34873 ft | 543 kts | 56° |
| 2026-05-08 12:37 | 43.40630 | -69.32384 | 34873 ft | 541 kts | 56° |
| 2026-05-08 12:37 | 43.44602 | -69.23593 | 34877 ft | 541 kts | 57° |
| 2026-05-08 12:38 | 43.48573 | -69.14786 | 34871 ft | 541 kts | 57° |
| 2026-05-08 12:38 | 43.52542 | -69.05949 | 34872 ft | 542 kts | 57° |
| 2026-05-08 12:39 | 43.56507 | -68.97095 | 34871 ft | 543 kts | 57° |
| 2026-05-08 12:39 | 43.60468 | -68.88225 | 34891 ft | 543 kts | 57° |
| 2026-05-08 12:40 | 43.64400 | -68.79390 | 34875 ft | 543 kts | 58° |
| 2026-05-08 12:40 | 43.68349 | -68.70492 | 34837 ft | 543 kts | 58° |
| 2026-05-08 12:41 | 43.72293 | -68.61577 | 34861 ft | 543 kts | 58° |
| 2026-05-08 12:41 | 43.76234 | -68.52643 | 34864 ft | 544 kts | 58° |
| 2026-05-08 12:42 | 43.80151 | -68.43734 | 34862 ft | 545 kts | 58° |
| 2026-05-08 12:42 | 43.84085 | -68.34759 | 34905 ft | 545 kts | 58° |
| 2026-05-08 12:43 | 43.88016 | -68.25764 | 34866 ft | 544 kts | 59° |
| 2026-05-08 12:43 | 43.91921 | -68.16799 | 34842 ft | 541 kts | 59° |
| 2026-05-08 12:44 | 43.95787 | -68.07897 | 34823 ft | 539 kts | 59° |
| 2026-05-08 12:44 | 43.99685 | -67.98893 | 34860 ft | 548 kts | 59° |
| 2026-05-08 12:45 | 44.03614 | -67.89790 | 34842 ft | 548 kts | 60° |
| 2026-05-08 12:45 | 44.07502 | -67.80753 | 34834 ft | 547 kts | 60° |
| 2026-05-08 12:46 | 44.11395 | -67.71676 | 34830 ft | 545 kts | 60° |
| 2026-05-08 12:46 | 44.15268 | -67.62617 | 34841 ft | 544 kts | 60° |
| 2026-05-08 12:47 | 44.19124 | -67.53568 | 34824 ft | 542 kts | 60° |
| 2026-05-08 12:47 | 44.22964 | -67.44531 | 34808 ft | 541 kts | 61° |
| 2026-05-08 12:48 | 44.26800 | -67.35469 | 34833 ft | 543 kts | 61° |
| 2026-05-08 12:48 | 44.30618 | -67.26422 | 34821 ft | 545 kts | 61° |
| 2026-05-08 12:49 | 44.34470 | -67.17267 | 34817 ft | 547 kts | 61° |
| 2026-05-08 12:49 | 44.38327 | -67.08071 | 34806 ft | 548 kts | 61° |
| 2026-05-08 12:50 | 44.42280 | -66.98936 | 34807 ft | 550 kts | 57° |
| 2026-05-08 12:50 | 44.46970 | -66.90479 | 34799 ft | 549 kts | 52° |
| 2026-05-08 12:51 | 44.54172 | -66.78053 | 34783 ft | 549 kts | 52° |
| 2026-05-08 12:52 | 44.58948 | -66.69680 | 34783 ft | 550 kts | 53° |
| 2026-05-08 12:52 | 44.66083 | -66.57020 | 34773 ft | 552 kts | 53° |
| 2026-05-08 12:53 | 44.70837 | -66.48548 | 34760 ft | 552 kts | 53° |
| 2026-05-08 12:53 | 44.75595 | -66.40055 | 34754 ft | 553 kts | 53° |
| 2026-05-08 12:54 | 44.80353 | -66.31538 | 34752 ft | 553 kts | 53° |
| 2026-05-08 12:54 | 44.85100 | -66.23017 | 34758 ft | 553 kts | 53° |
| 2026-05-08 12:55 | 44.89814 | -66.14531 | 34764 ft | 553 kts | 54° |
| 2026-05-08 12:55 | 44.94554 | -66.05969 | 34770 ft | 553 kts | 54° |
| 2026-05-08 12:56 | 44.99285 | -65.97397 | 34771 ft | 552 kts | 54° |
| 2026-05-08 12:56 | 45.04000 | -65.88832 | 34750 ft | 552 kts | 54° |
| 2026-05-08 12:57 | 45.08707 | -65.80253 | 34762 ft | 551 kts | 54° |
| 2026-05-08 12:57 | 45.13403 | -65.71670 | 34741 ft | 551 kts | 54° |
| 2026-05-08 12:58 | 45.18059 | -65.63134 | 34737 ft | 551 kts | 54° |
| 2026-05-08 12:58 | 45.22764 | -65.54480 | 34745 ft | 550 kts | 54° |
| 2026-05-08 12:59 | 45.27406 | -65.45918 | 34731 ft | 550 kts | 54° |
| 2026-05-08 12:59 | 45.32067 | -65.37294 | 34725 ft | 550 kts | 55° |
| 2026-05-08 13:00 | 45.36714 | -65.28671 | 34735 ft | 550 kts | 55° |
| 2026-05-08 13:00 | 45.41361 | -65.20021 | 34686 ft | 550 kts | 56° |
| 2026-05-08 13:01 | 45.46003 | -65.11356 | 34712 ft | 551 kts | 56° |
| 2026-05-08 13:01 | 45.50650 | -65.02650 | 34721 ft | 552 kts | 56° |
| 2026-05-08 13:02 | 45.55276 | -64.93957 | 34723 ft | 554 kts | 56° |
| 2026-05-08 13:02 | 45.59946 | -64.85158 | 34714 ft | 556 kts | 56° |
| 2026-05-08 13:03 | 45.64611 | -64.76340 | 34719 ft | 557 kts | 57° |
| 2026-05-08 13:03 | 45.69280 | -64.67488 | 34708 ft | 557 kts | 57° |
| 2026-05-08 13:04 | 45.73910 | -64.58682 | 34706 ft | 556 kts | 57° |
| 2026-05-08 13:04 | 45.78558 | -64.49813 | 34697 ft | 556 kts | 57° |
| 2026-05-08 13:05 | 45.83193 | -64.40941 | 34698 ft | 555 kts | 57° |
| 2026-05-08 13:05 | 45.87815 | -64.32066 | 34653 ft | 554 kts | 57° |
| 2026-05-08 13:06 | 45.92386 | -64.23263 | 34692 ft | 552 kts | 57° |
| 2026-05-08 13:06 | 45.96975 | -64.14394 | 34694 ft | 553 kts | 57° |
| 2026-05-08 13:07 | 46.01562 | -64.05502 | 34694 ft | 553 kts | 57° |
| 2026-05-08 13:07 | 46.06154 | -63.96572 | 34690 ft | 553 kts | 58° |
| 2026-05-08 13:08 | 46.10701 | -63.87703 | 34693 ft | 554 kts | 58° |
| 2026-05-08 13:08 | 46.15272 | -63.78758 | 34691 ft | 554 kts | 58° |
| 2026-05-08 13:09 | 46.19832 | -63.69807 | 34690 ft | 553 kts | 58° |
| 2026-05-08 13:09 | 46.24378 | -63.60855 | 34701 ft | 553 kts | 58° |
| 2026-05-08 13:10 | 46.28922 | -63.51876 | 34698 ft | 552 kts | 58° |
| 2026-05-08 13:10 | 46.33451 | -63.42897 | 34668 ft | 552 kts | 59° |
| 2026-05-08 13:11 | 46.37970 | -63.33913 | 34693 ft | 551 kts | 59° |
| 2026-05-08 13:11 | 46.42446 | -63.24987 | 34691 ft | 551 kts | 59° |
| 2026-05-08 13:12 | 46.46939 | -63.15994 | 34700 ft | 551 kts | 59° |
| 2026-05-08 13:12 | 46.51427 | -63.06985 | 34690 ft | 551 kts | 60° |
| 2026-05-08 13:13 | 46.55907 | -62.97960 | 34702 ft | 551 kts | 60° |
| 2026-05-08 13:13 | 46.60387 | -62.88907 | 34701 ft | 551 kts | 60° |
| 2026-05-08 13:14 | 46.64856 | -62.79848 | 34695 ft | 551 kts | 60° |
| 2026-05-08 13:14 | 46.69323 | -62.70765 | 34704 ft | 551 kts | 60° |
| 2026-05-08 13:15 | 46.73781 | -62.61665 | 34713 ft | 552 kts | 60° |
| 2026-05-08 13:15 | 46.78208 | -62.52602 | 34670 ft | 552 kts | 61° |
| 2026-05-08 13:16 | 46.82651 | -62.43479 | 34729 ft | 552 kts | 62° |
| 2026-05-08 13:16 | 46.87101 | -62.34306 | 34733 ft | 553 kts | 62° |
| 2026-05-08 13:17 | 46.91549 | -62.25108 | 34730 ft | 555 kts | 62° |
| 2026-05-08 13:17 | 46.95998 | -62.15879 | 34726 ft | 555 kts | 62° |
| 2026-05-08 13:18 | 46.99693 | -62.08191 | 34741 ft | 556 kts | 62° |
| 2026-05-08 13:18 | 47.04142 | -61.98906 | 34744 ft | 556 kts | 62° |
| 2026-05-08 13:19 | 47.08578 | -61.89617 | 34732 ft | 556 kts | 62° |
| 2026-05-08 13:19 | 47.13013 | -61.80300 | 34705 ft | 556 kts | 63° |
| 2026-05-08 13:20 | 47.17430 | -61.70989 | 34713 ft | 555 kts | 63° |
| 2026-05-08 13:20 | 47.21842 | -61.61655 | 34705 ft | 555 kts | 63° |
| 2026-05-08 13:21 | 47.26238 | -61.52327 | 34673 ft | 553 kts | 63° |
| 2026-05-08 13:21 | 47.30614 | -61.43007 | 34710 ft | 553 kts | 63° |
| 2026-05-08 13:22 | 47.34987 | -61.33657 | 34718 ft | 554 kts | 63° |
| 2026-05-08 13:22 | 47.39330 | -61.24344 | 34725 ft | 555 kts | 63° |
| 2026-05-08 13:23 | 47.43700 | -61.14941 | 34740 ft | 555 kts | 63° |
| 2026-05-08 13:23 | 47.48063 | -61.05523 | 34739 ft | 555 kts | 63° |
| 2026-05-08 13:24 | 47.52423 | -60.96079 | 34728 ft | 555 kts | 63° |
| 2026-05-08 13:24 | 47.56773 | -60.86622 | 34743 ft | 555 kts | 63° |
| 2026-05-08 13:25 | 47.61110 | -60.77162 | 34737 ft | 555 kts | 64° |
| 2026-05-08 13:25 | 47.65419 | -60.67730 | 34730 ft | 555 kts | 64° |
| 2026-05-08 13:26 | 47.69748 | -60.58222 | 34680 ft | 554 kts | 64° |
| 2026-05-08 13:26 | 47.74053 | -60.48735 | 34734 ft | 554 kts | 64° |
| 2026-05-08 13:27 | 47.78346 | -60.39238 | 34728 ft | 554 kts | 64° |
| 2026-05-08 13:27 | 47.82645 | -60.29696 | 34726 ft | 555 kts | 64° |
| 2026-05-08 13:28 | 47.86934 | -60.20141 | 34725 ft | 555 kts | 64° |
| 2026-05-08 13:28 | 47.91225 | -60.10552 | 34724 ft | 556 kts | 64° |
| 2026-05-08 13:29 | 47.95477 | -60.01015 | 34723 ft | 556 kts | 64° |
| 2026-05-08 13:29 | 47.99753 | -59.91390 | 34712 ft | 556 kts | 65° |
| 2026-05-08 13:30 | 48.04026 | -59.81739 | 34724 ft | 556 kts | 65° |
| 2026-05-08 13:30 | 48.08022 | -59.72679 | 34724 ft | 557 kts | 65° |
| 2026-05-08 13:31 | 48.12179 | -59.63225 | 34724 ft | 557 kts | 65° |
| 2026-05-08 13:31 | 48.16433 | -59.53520 | 34687 ft | 558 kts | 66° |
| 2026-05-08 13:32 | 48.20685 | -59.43774 | 34721 ft | 560 kts | 66° |
| 2026-05-08 13:32 | 48.24928 | -59.34015 | 34726 ft | 562 kts | 66° |
| 2026-05-08 13:33 | 48.29062 | -59.24477 | 34722 ft | 564 kts | 66° |
| 2026-05-08 13:33 | 48.33339 | -59.14577 | 34713 ft | 565 kts | 66° |
| 2026-05-08 13:34 | 48.37591 | -59.04701 | 34724 ft | 565 kts | 66° |
| 2026-05-08 13:34 | 48.41860 | -58.94747 | 34720 ft | 564 kts | 66° |
| 2026-05-08 13:35 | 48.46026 | -58.84999 | 34705 ft | 563 kts | 66° |
| 2026-05-08 13:35 | 48.49981 | -58.75708 | 34703 ft | 561 kts | 66° |
| 2026-05-08 13:36 | 48.54180 | -58.65807 | 34703 ft | 560 kts | 66° |
| 2026-05-08 13:36 | 48.58371 | -58.55884 | 34640 ft | 559 kts | 65° |
| 2026-05-08 13:37 | 48.62540 | -58.45984 | 34695 ft | 557 kts | 65° |
| 2026-05-08 13:37 | 48.66663 | -58.36157 | 34692 ft | 556 kts | 65° |
| 2026-05-08 13:38 | 48.70490 | -58.26999 | 34697 ft | 556 kts | 66° |
| 2026-05-08 13:38 | 48.74618 | -58.17086 | 34683 ft | 556 kts | 65° |
| 2026-05-08 13:39 | 48.78739 | -58.07155 | 34686 ft | 556 kts | 65° |
| 2026-05-08 13:39 | 48.82823 | -57.97274 | 34696 ft | 557 kts | 66° |
| 2026-05-08 13:40 | 48.86942 | -57.87275 | 34679 ft | 558 kts | 66° |
| 2026-05-08 13:40 | 48.91050 | -57.77266 | 34683 ft | 558 kts | 66° |
| 2026-05-08 13:41 | 48.95148 | -57.67244 | 34691 ft | 558 kts | 66° |
| 2026-05-08 13:41 | 48.99244 | -57.57186 | 34691 ft | 558 kts | 66° |
| 2026-05-08 13:42 | 49.03324 | -57.47132 | 34643 ft | 557 kts | 65° |
| 2026-05-08 13:42 | 49.07373 | -57.37122 | 34687 ft | 553 kts | 65° |
| 2026-05-08 13:43 | 49.11370 | -57.27199 | 34691 ft | 550 kts | 65° |
| 2026-05-08 13:43 | 49.15365 | -57.17240 | 34643 ft | 548 kts | 65° |
| 2026-05-08 13:44 | 49.19336 | -57.07301 | 34666 ft | 547 kts | 65° |
| 2026-05-08 13:44 | 49.23275 | -56.97406 | 34671 ft | 548 kts | 65° |
| 2026-05-08 13:45 | 49.27236 | -56.87418 | 34672 ft | 549 kts | 66° |
| 2026-05-08 13:45 | 49.31200 | -56.77385 | 34671 ft | 551 kts | 66° |
| 2026-05-08 13:46 | 49.35170 | -56.67296 | 34665 ft | 554 kts | 66° |
| 2026-05-08 13:46 | 49.39154 | -56.57140 | 34666 ft | 555 kts | 66° |
| 2026-05-08 13:47 | 49.43107 | -56.47030 | 34664 ft | 555 kts | 66° |
| 2026-05-08 13:47 | 49.47081 | -56.36821 | 34661 ft | 556 kts | 66° |
| 2026-05-08 13:48 | 49.50784 | -56.27269 | 34660 ft | 557 kts | 66° |
| 2026-05-08 13:48 | 49.54736 | -56.17034 | 34669 ft | 557 kts | 66° |
| 2026-05-08 13:49 | 49.58689 | -56.06762 | 34663 ft | 558 kts | 66° |
| 2026-05-08 13:49 | 49.62641 | -55.96448 | 34679 ft | 560 kts | 66° |
| 2026-05-08 13:50 | 49.66608 | -55.86057 | 34664 ft | 561 kts | 66° |
| 2026-05-08 13:50 | 49.70525 | -55.75759 | 34672 ft | 559 kts | 66° |
| 2026-05-08 13:51 | 49.74460 | -55.65372 | 34655 ft | 558 kts | 66° |
| 2026-05-08 13:51 | 49.78374 | -55.54998 | 34670 ft | 558 kts | 66° |
| 2026-05-08 13:52 | 49.82136 | -55.44982 | 34669 ft | 558 kts | 66° |
| 2026-05-08 13:52 | 49.86006 | -55.34642 | 34672 ft | 558 kts | 66° |
| 2026-05-08 13:53 | 49.89889 | -55.24223 | 34621 ft | 558 kts | 66° |
| 2026-05-08 13:53 | 49.93759 | -55.13804 | 34669 ft | 557 kts | 66° |
| 2026-05-08 13:54 | 49.97613 | -55.03384 | 34671 ft | 556 kts | 66° |
| 2026-05-08 13:54 | 50.01468 | -54.92917 | 34670 ft | 556 kts | 66° |
| 2026-05-08 13:55 | 50.05294 | -54.82486 | 34696 ft | 556 kts | 66° |
| 2026-05-08 13:56 | 50.11004 | -54.66842 | 34676 ft | 555 kts | 66° |
| 2026-05-08 13:56 | 50.14811 | -54.56358 | 34676 ft | 554 kts | 66° |
| 2026-05-08 13:57 | 50.18578 | -54.45943 | 34681 ft | 553 kts | 66° |
| 2026-05-08 13:57 | 50.22348 | -54.35477 | 34673 ft | 552 kts | 66° |
| 2026-05-08 13:58 | 50.26102 | -54.25013 | 34684 ft | 551 kts | 67° |
| 2026-05-08 13:58 | 50.29845 | -54.14537 | 34685 ft | 551 kts | 67° |
| 2026-05-08 13:59 | 50.33574 | -54.04055 | 34646 ft | 550 kts | 66° |
| 2026-05-08 13:59 | 50.37258 | -53.93663 | 34678 ft | 548 kts | 66° |
| 2026-05-08 14:00 | 50.40947 | -53.83207 | 34687 ft | 547 kts | 67° |
| 2026-05-08 14:00 | 50.44616 | -53.72769 | 34683 ft | 546 kts | 67° |
| 2026-05-08 14:01 | 50.48269 | -53.62333 | 34697 ft | 545 kts | 67° |
| 2026-05-08 14:01 | 50.51891 | -53.51940 | 34687 ft | 545 kts | 67° |
| 2026-05-08 14:02 | 50.55522 | -53.41482 | 34697 ft | 544 kts | 67° |
| 2026-05-08 14:02 | 50.59141 | -53.31015 | 34692 ft | 544 kts | 67° |
| 2026-05-08 14:03 | 50.62755 | -53.20519 | 34705 ft | 544 kts | 67° |
| 2026-05-08 14:03 | 50.66356 | -53.10016 | 34700 ft | 545 kts | 67° |
| 2026-05-08 14:04 | 50.69928 | -52.99555 | 34701 ft | 545 kts | 67° |
| 2026-05-08 14:04 | 50.73513 | -52.89015 | 34698 ft | 545 kts | 67° |
| 2026-05-08 14:05 | 50.77087 | -52.78461 | 34704 ft | 543 kts | 67° |
| 2026-05-08 14:05 | 50.80642 | -52.67916 | 34704 ft | 543 kts | 67° |
| 2026-05-08 14:06 | 50.84079 | -52.57377 | 34713 ft | 540 kts | 71° |
| 2026-05-08 14:06 | 50.87050 | -52.46478 | 34716 ft | 538 kts | 73° |
| 2026-05-08 14:07 | 50.89934 | -52.35546 | 34714 ft | 538 kts | 73° |
| 2026-05-08 14:07 | 50.92344 | -52.26444 | 34721 ft | 538 kts | 73° |
| 2026-05-08 14:08 | 50.95260 | -52.15496 | 34724 ft | 539 kts | 73° |
| 2026-05-08 14:08 | 50.98170 | -52.04559 | 34720 ft | 539 kts | 72° |
| 2026-05-08 14:09 | 51.01074 | -51.93587 | 34741 ft | 539 kts | 73° |
| 2026-05-08 14:09 | 51.03969 | -51.82585 | 34734 ft | 540 kts | 73° |
| 2026-05-08 14:10 | 51.06840 | -51.71620 | 34729 ft | 540 kts | 72° |
| 2026-05-08 14:10 | 51.09721 | -51.60563 | 34732 ft | 541 kts | 72° |
| 2026-05-08 14:11 | 51.12591 | -51.49497 | 34762 ft | 541 kts | 72° |
| 2026-05-08 14:11 | 51.15456 | -51.38396 | 34758 ft | 542 kts | 72° |
| 2026-05-08 14:12 | 51.18314 | -51.27265 | 34751 ft | 543 kts | 72° |
| 2026-05-08 14:12 | 51.21149 | -51.16174 | 34764 ft | 543 kts | 72° |
| 2026-05-08 14:13 | 51.23986 | -51.05014 | 34774 ft | 543 kts | 72° |
| 2026-05-08 14:13 | 51.26814 | -50.93839 | 34777 ft | 543 kts | 72° |
| 2026-05-08 14:14 | 51.29632 | -50.82642 | 34783 ft | 542 kts | 72° |
| 2026-05-08 14:14 | 51.32438 | -50.71441 | 34745 ft | 542 kts | 71° |
| 2026-05-08 14:15 | 51.35221 | -50.60273 | 34783 ft | 539 kts | 71° |
| 2026-05-08 14:15 | 51.37971 | -50.49187 | 34787 ft | 538 kts | 72° |
| 2026-05-08 14:16 | 51.40721 | -50.38038 | 34797 ft | 538 kts | 72° |
| 2026-05-08 14:16 | 51.43457 | -50.26892 | 34804 ft | 537 kts | 72° |
| 2026-05-08 14:17 | 51.46184 | -50.15726 | 34810 ft | 537 kts | 72° |
| 2026-05-08 14:17 | 51.48883 | -50.04620 | 34818 ft | 537 kts | 72° |
| 2026-05-08 14:18 | 51.51619 | -49.93435 | 34816 ft | 538 kts | 71° |
| 2026-05-08 14:18 | 51.54435 | -49.82272 | 34831 ft | 539 kts | 71° |
| 2026-05-08 14:19 | 51.57267 | -49.71058 | 35061 ft | 543 kts | 71° |
| 2026-05-08 14:19 | 51.58676 | -49.65438 | 35415 ft | 541 kts | 71° |
| 2026-05-08 14:19 | 51.60054 | -49.59916 | 35888 ft | 536 kts | 71° |
| 2026-05-08 14:19 | 51.61434 | -49.54364 | 36336 ft | 533 kts | 71° |
| 2026-05-08 14:20 | 51.62806 | -49.48822 | 36729 ft | 531 kts | 71° |
| 2026-05-08 14:20 | 51.64169 | -49.43296 | 36882 ft | 534 kts | 71° |
| 2026-05-08 14:20 | 51.65543 | -49.37709 | 36852 ft | 536 kts | 71° |
| 2026-05-08 14:21 | 51.68272 | -49.26575 | 36837 ft | 532 kts | 70° |
| 2026-05-08 14:21 | 51.70978 | -49.15492 | 36851 ft | 529 kts | 70° |
| 2026-05-08 14:22 | 51.73658 | -49.04462 | 36853 ft | 528 kts | 70° |
| 2026-05-08 14:22 | 51.76324 | -48.93426 | 36873 ft | 528 kts | 70° |
| 2026-05-08 14:23 | 51.78983 | -48.82363 | 36885 ft | 528 kts | 70° |
| 2026-05-08 14:23 | 51.81635 | -48.71279 | 36873 ft | 529 kts | 70° |
| 2026-05-08 14:24 | 51.84263 | -48.60236 | 36873 ft | 530 kts | 70° |
| 2026-05-08 14:24 | 51.86904 | -48.49080 | 36890 ft | 530 kts | 70° |
| 2026-05-08 14:25 | 51.89533 | -48.37920 | 36892 ft | 529 kts | 70° |
| 2026-05-08 14:25 | 51.92140 | -48.26792 | 36902 ft | 527 kts | 70° |
| 2026-05-08 14:26 | 51.94732 | -48.15677 | 36911 ft | 527 kts | 70° |
| 2026-05-08 14:26 | 51.97298 | -48.04612 | 36922 ft | 526 kts | 70° |
| 2026-05-08 14:27 | 51.99860 | -47.93505 | 36924 ft | 526 kts | 70° |
| 2026-05-08 14:27 | 52.02415 | -47.82367 | 36933 ft | 526 kts | 70° |
| 2026-05-08 14:28 | 52.04961 | -47.71221 | 36936 ft | 527 kts | 70° |
| 2026-05-08 14:28 | 52.07502 | -47.60033 | 36954 ft | 527 kts | 70° |
| 2026-05-08 14:29 | 52.10033 | -47.48825 | 36956 ft | 528 kts | 70° |
| 2026-05-08 14:29 | 52.12543 | -47.37650 | 36939 ft | 529 kts | 70° |
| 2026-05-08 14:30 | 52.15057 | -47.26401 | 36958 ft | 528 kts | 69° |
| 2026-05-08 14:30 | 52.17562 | -47.15136 | 36970 ft | 528 kts | 69° |
| 2026-05-08 14:31 | 52.20051 | -47.03880 | 36987 ft | 528 kts | 70° |
| 2026-05-08 14:31 | 52.22526 | -46.92622 | 36986 ft | 527 kts | 69° |
| 2026-05-08 14:32 | 52.26201 | -46.75796 | 37004 ft | 526 kts | 69° |
| 2026-05-08 14:32 | 52.28646 | -46.64522 | 37012 ft | 525 kts | 69° |
| 2026-05-08 14:33 | 52.31074 | -46.53265 | 37019 ft | 525 kts | 69° |
| 2026-05-08 14:33 | 52.33484 | -46.42018 | 37029 ft | 524 kts | 69° |
| 2026-05-08 14:34 | 52.35884 | -46.30751 | 37026 ft | 524 kts | 69° |
| 2026-05-08 14:34 | 52.38275 | -46.19490 | 37044 ft | 524 kts | 69° |
| 2026-05-08 14:35 | 52.40649 | -46.08237 | 37049 ft | 522 kts | 69° |
| 2026-05-08 14:35 | 52.42990 | -45.97077 | 37061 ft | 521 kts | 69° |
| 2026-05-08 14:36 | 52.45332 | -45.85856 | 37064 ft | 519 kts | 69° |
| 2026-05-08 14:36 | 52.47660 | -45.74648 | 37062 ft | 518 kts | 69° |
| 2026-05-08 14:37 | 52.49975 | -45.63444 | 37073 ft | 518 kts | 69° |
| 2026-05-08 14:37 | 52.52273 | -45.52246 | 37078 ft | 518 kts | 69° |
| 2026-05-08 14:38 | 52.54549 | -45.41083 | 37082 ft | 518 kts | 69° |
| 2026-05-08 14:38 | 52.56827 | -45.29855 | 37080 ft | 517 kts | 69° |
| 2026-05-08 14:39 | 52.59089 | -45.18621 | 37104 ft | 517 kts | 69° |
| 2026-05-08 14:39 | 52.61341 | -45.07382 | 37111 ft | 517 kts | 69° |
| 2026-05-08 14:40 | 52.63590 | -44.96124 | 37112 ft | 517 kts | 69° |
| 2026-05-08 14:40 | 52.65829 | -44.84843 | 37120 ft | 518 kts | 69° |
| 2026-05-08 14:41 | 52.68037 | -44.73635 | 37131 ft | 518 kts | 69° |
| 2026-05-08 14:41 | 52.70255 | -44.62315 | 37131 ft | 518 kts | 69° |
| 2026-05-08 14:42 | 52.72461 | -44.50988 | 37133 ft | 519 kts | 70° |
| 2026-05-08 14:42 | 52.74654 | -44.39660 | 37142 ft | 518 kts | 69° |
| 2026-05-08 14:43 | 52.76836 | -44.28326 | 37151 ft | 518 kts | 69° |
| 2026-05-08 14:43 | 52.78992 | -44.17059 | 37155 ft | 517 kts | 69° |
| 2026-05-08 14:44 | 52.81139 | -44.05761 | 37147 ft | 508 kts | 69° |
| 2026-05-08 14:44 | 52.83231 | -43.94687 | 37166 ft | 501 kts | 69° |
| 2026-05-08 14:45 | 52.85288 | -43.83745 | 37168 ft | 496 kts | 69° |
| 2026-05-08 14:45 | 52.87316 | -43.72894 | 37175 ft | 490 kts | 69° |
| 2026-05-08 14:46 | 52.89316 | -43.62134 | 37179 ft | 486 kts | 69° |
| 2026-05-08 14:46 | 52.91268 | -43.51546 | 37180 ft | 482 kts | 69° |
| 2026-05-08 14:47 | 52.93207 | -43.40954 | 37204 ft | 478 kts | 69° |
| 2026-05-08 14:47 | 52.95128 | -43.30435 | 37204 ft | 474 kts | 69° |
| 2026-05-08 14:48 | 52.97025 | -43.20004 | 37202 ft | 471 kts | 69° |
| 2026-05-08 14:48 | 52.98906 | -43.09623 | 37206 ft | 467 kts | 69° |
| 2026-05-08 14:49 | 53.00762 | -42.99318 | 37211 ft | 465 kts | 69° |
| 2026-05-08 14:49 | 53.02595 | -42.89048 | 37226 ft | 462 kts | 68° |
| 2026-05-08 14:50 | 53.04402 | -42.78858 | 37226 ft | 460 kts | 68° |
| 2026-05-08 14:50 | 53.06200 | -42.68667 | 37230 ft | 458 kts | 69° |
| 2026-05-08 14:51 | 53.07979 | -42.58529 | 37236 ft | 456 kts | 69° |
| 2026-05-08 14:51 | 53.09730 | -42.48499 | 37243 ft | 453 kts | 68° |
| 2026-05-08 14:52 | 53.12343 | -42.33426 | 37246 ft | 450 kts | 68° |
| 2026-05-08 14:53 | 53.14066 | -42.23408 | 37257 ft | 448 kts | 68° |
| 2026-05-08 14:53 | 53.15776 | -42.13419 | 37257 ft | 447 kts | 68° |
| 2026-05-08 14:54 | 53.17467 | -42.03479 | 37255 ft | 445 kts | 68° |
| 2026-05-08 14:54 | 53.18861 | -41.95245 | 37262 ft | 443 kts | 68° |
| 2026-05-08 14:55 | 53.20800 | -41.83728 | 37270 ft | 442 kts | 68° |
| 2026-05-08 14:55 | 53.22171 | -41.75532 | 37276 ft | 441 kts | 68° |
| 2026-05-08 14:56 | 53.23808 | -41.65698 | 37278 ft | 439 kts | 68° |
| 2026-05-08 14:56 | 53.25434 | -41.55874 | 37287 ft | 438 kts | 68° |
| 2026-05-08 14:57 | 53.27045 | -41.46083 | 37286 ft | 436 kts | 68° |
| 2026-05-08 14:57 | 53.28645 | -41.36302 | 37312 ft | 435 kts | 68° |
| 2026-05-08 14:58 | 53.30231 | -41.26574 | 37325 ft | 441 kts | 68° |
| 2026-05-08 14:58 | 53.31868 | -41.16500 | 37327 ft | 455 kts | 68° |
| 2026-05-08 14:59 | 53.33543 | -41.06102 | 37323 ft | 469 kts | 68° |
| 2026-05-08 14:59 | 53.35250 | -40.95412 | 37327 ft | 481 kts | 69° |
| 2026-05-08 14:59 | 53.36115 | -40.89965 | 37325 ft | 486 kts | 69° |
| 2026-05-08 15:00 | 53.37842 | -40.79028 | 37321 ft | 490 kts | 69° |
| 2026-05-08 15:00 | 53.39577 | -40.67959 | 37324 ft | 491 kts | 69° |
| 2026-05-08 15:01 | 53.41302 | -40.56893 | 37319 ft | 490 kts | 69° |
| 2026-05-08 15:01 | 53.43017 | -40.45830 | 37314 ft | 488 kts | 69° |
| 2026-05-08 15:02 | 53.44701 | -40.34890 | 37329 ft | 486 kts | 69° |
| 2026-05-08 15:02 | 53.46381 | -40.23912 | 37338 ft | 485 kts | 68° |
| 2026-05-08 15:03 | 53.48044 | -40.12967 | 37343 ft | 483 kts | 69° |
| 2026-05-08 15:03 | 53.49697 | -40.02029 | 37353 ft | 483 kts | 68° |
| 2026-05-08 15:04 | 53.51310 | -39.91081 | 37351 ft | 482 kts | 69° |
| 2026-05-08 15:04 | 53.52871 | -39.80128 | 37363 ft | 481 kts | 69° |
| 2026-05-08 15:05 | 53.54419 | -39.69193 | 37365 ft | 480 kts | 69° |
| 2026-05-08 15:05 | 53.55961 | -39.58262 | 37367 ft | 480 kts | 69° |
| 2026-05-08 15:06 | 53.57498 | -39.47321 | 37364 ft | 480 kts | 69° |
| 2026-05-08 15:06 | 53.59015 | -39.36439 | 37379 ft | 481 kts | 69° |
| 2026-05-08 15:07 | 53.60518 | -39.25549 | 37382 ft | 471 kts | 69° |
| 2026-05-08 15:07 | 53.62005 | -39.14742 | 37387 ft | 479 kts | 69° |
| 2026-05-08 15:08 | 53.63266 | -39.05561 | 37400 ft | 487 kts | 69° |
| 2026-05-08 15:08 | 53.65037 | -38.92487 | 37389 ft | 490 kts | 70° |
| 2026-05-08 15:09 | 53.66536 | -38.81291 | 37388 ft | 489 kts | 70° |
| 2026-05-08 15:09 | 53.68014 | -38.70176 | 37426 ft | 488 kts | 69° |
| 2026-05-08 15:10 | 53.69486 | -38.59031 | 37401 ft | 485 kts | 69° |
| 2026-05-08 15:10 | 53.70940 | -38.47944 | 37395 ft | 482 kts | 69° |
| 2026-05-08 15:11 | 53.72376 | -38.36924 | 37404 ft | 479 kts | 69° |
| 2026-05-08 15:11 | 53.73799 | -38.25923 | 37409 ft | 478 kts | 69° |
| 2026-05-08 15:12 | 53.75209 | -38.14931 | 37443 ft | 479 kts | 69° |
| 2026-05-08 15:12 | 53.76603 | -38.03990 | 37427 ft | 479 kts | 69° |
| 2026-05-08 15:13 | 53.77997 | -37.92953 | 37426 ft | 480 kts | 69° |
| 2026-05-08 15:13 | 53.79379 | -37.81911 | 37428 ft | 480 kts | 69° |
| 2026-05-08 15:14 | 53.80753 | -37.70851 | 37439 ft | 480 kts | 69° |
| 2026-05-08 15:14 | 53.82119 | -37.59767 | 37458 ft | 481 kts | 69° |
| 2026-05-08 15:15 | 53.83467 | -37.48738 | 37455 ft | 480 kts | 69° |
| 2026-05-08 15:15 | 53.84808 | -37.37660 | 37442 ft | 479 kts | 69° |
| 2026-05-08 15:16 | 53.86136 | -37.26611 | 37441 ft | 477 kts | 69° |
| 2026-05-08 15:16 | 53.87448 | -37.15602 | 37447 ft | 476 kts | 69° |
| 2026-05-08 15:17 | 53.88740 | -37.04681 | 37476 ft | 475 kts | 69° |
| 2026-05-08 15:17 | 53.90032 | -36.93678 | 37459 ft | 475 kts | 69° |
| 2026-05-08 15:18 | 53.91312 | -36.82677 | 37461 ft | 475 kts | 69° |
| 2026-05-08 15:18 | 53.92583 | -36.71658 | 37462 ft | 476 kts | 69° |
| 2026-05-08 15:19 | 53.93845 | -36.60624 | 37468 ft | 477 kts | 69° |
| 2026-05-08 15:19 | 53.95092 | -36.49621 | 37480 ft | 478 kts | 69° |
| 2026-05-08 15:20 | 53.96339 | -36.38520 | 37473 ft | 478 kts | 69° |
| 2026-05-08 15:20 | 53.97577 | -36.27397 | 37468 ft | 479 kts | 70° |
| 2026-05-08 15:21 | 53.98795 | -36.16354 | 37492 ft | 478 kts | 70° |
| 2026-05-08 15:21 | 54.00008 | -36.05252 | 37471 ft | 477 kts | 70° |
| 2026-05-08 15:22 | 54.01206 | -35.94193 | 37493 ft | 475 kts | 70° |
| 2026-05-08 15:22 | 54.02391 | -35.83155 | 37475 ft | 474 kts | 70° |
| 2026-05-08 15:23 | 54.03566 | -35.72118 | 37479 ft | 473 kts | 70° |
| 2026-05-08 15:23 | 54.04727 | -35.61121 | 37478 ft | 472 kts | 70° |
| 2026-05-08 15:24 | 54.05878 | -35.50111 | 37482 ft | 472 kts | 70° |
| 2026-05-08 15:24 | 54.07013 | -35.39165 | 37514 ft | 473 kts | 70° |
| 2026-05-08 15:25 | 54.08148 | -35.28110 | 37498 ft | 473 kts | 70° |
| 2026-05-08 15:25 | 54.09248 | -35.17197 | 37477 ft | 463 kts | 70° |
| 2026-05-08 15:26 | 54.10329 | -35.06421 | 37482 ft | 458 kts | 70° |
| 2026-05-08 15:26 | 54.11392 | -34.95780 | 37483 ft | 453 kts | 70° |
| 2026-05-08 15:27 | 54.12436 | -34.85229 | 37537 ft | 450 kts | 71° |
| 2026-05-08 15:27 | 54.13472 | -34.74694 | 37517 ft | 454 kts | 71° |
| 2026-05-08 15:28 | 54.14528 | -34.63928 | 37513 ft | 467 kts | 71° |
| 2026-05-08 15:28 | 54.15591 | -34.52915 | 37519 ft | 479 kts | 72° |
| 2026-05-08 15:29 | 54.16663 | -34.41598 | 37510 ft | 484 kts | 72° |
| 2026-05-08 15:29 | 54.17721 | -34.30248 | 37505 ft | 484 kts | 72° |
| 2026-05-08 15:30 | 54.18772 | -34.18895 | 37506 ft | 483 kts | 72° |
| 2026-05-08 15:30 | 54.19812 | -34.07579 | 37510 ft | 482 kts | 72° |
| 2026-05-08 15:31 | 54.20841 | -33.96278 | 37508 ft | 481 kts | 72° |
| 2026-05-08 15:31 | 54.21859 | -33.84990 | 37508 ft | 480 kts | 72° |
| 2026-05-08 15:32 | 54.22866 | -33.73695 | 37524 ft | 480 kts | 72° |
| 2026-05-08 15:32 | 54.23861 | -33.62412 | 37516 ft | 481 kts | 73° |
| 2026-05-08 15:33 | 54.24848 | -33.51089 | 37535 ft | 482 kts | 73° |
| 2026-05-08 15:33 | 54.25819 | -33.39819 | 37520 ft | 482 kts | 73° |
| 2026-05-08 15:34 | 54.26789 | -33.28433 | 37517 ft | 482 kts | 73° |
| 2026-05-08 15:34 | 54.27745 | -33.17070 | 37520 ft | 482 kts | 73° |
| 2026-05-08 15:35 | 54.28692 | -33.05704 | 37514 ft | 482 kts | 74° |
| 2026-05-08 15:35 | 54.29625 | -32.94349 | 37520 ft | 481 kts | 74° |
| 2026-05-08 15:36 | 54.30391 | -32.84919 | 37516 ft | 481 kts | 74° |
| 2026-05-08 15:36 | 54.31450 | -32.71747 | 37526 ft | 480 kts | 74° |
| 2026-05-08 15:37 | 54.32349 | -32.60418 | 37523 ft | 479 kts | 74° |
| 2026-05-08 15:37 | 54.33237 | -32.49097 | 37530 ft | 480 kts | 75° |
| 2026-05-08 15:38 | 54.34114 | -32.37760 | 37522 ft | 479 kts | 75° |
| 2026-05-08 15:38 | 54.34979 | -32.26443 | 37523 ft | 478 kts | 75° |
| 2026-05-08 15:39 | 54.35833 | -32.15128 | 37523 ft | 478 kts | 75° |
| 2026-05-08 15:39 | 54.36676 | -32.03819 | 37523 ft | 478 kts | 75° |
| 2026-05-08 15:40 | 54.37502 | -31.92584 | 37524 ft | 478 kts | 75° |
| 2026-05-08 15:40 | 54.38323 | -31.81274 | 37522 ft | 477 kts | 75° |
| 2026-05-08 15:41 | 54.39132 | -31.69970 | 37522 ft | 477 kts | 75° |
| 2026-05-08 15:41 | 54.39929 | -31.58678 | 37523 ft | 476 kts | 76° |
| 2026-05-08 15:42 | 54.40585 | -31.49283 | 37522 ft | 476 kts | 76° |
| 2026-05-08 15:42 | 54.41363 | -31.37995 | 37526 ft | 477 kts | 76° |
| 2026-05-08 15:43 | 54.42131 | -31.26700 | 37523 ft | 476 kts | 76° |
| 2026-05-08 15:43 | 54.42887 | -31.15401 | 37519 ft | 476 kts | 76° |
| 2026-05-08 15:44 | 54.43633 | -31.04106 | 37519 ft | 475 kts | 76° |
| 2026-05-08 15:44 | 54.44368 | -30.92801 | 37520 ft | 475 kts | 76° |
| 2026-05-08 15:45 | 54.45094 | -30.81491 | 37542 ft | 476 kts | 77° |
| 2026-05-08 15:45 | 54.45804 | -30.70255 | 37524 ft | 476 kts | 77° |
| 2026-05-08 15:46 | 54.46506 | -30.58952 | 37516 ft | 475 kts | 77° |
| 2026-05-08 15:46 | 54.47198 | -30.47654 | 37518 ft | 475 kts | 77° |
| 2026-05-08 15:47 | 54.47878 | -30.36374 | 37517 ft | 474 kts | 77° |
| 2026-05-08 15:47 | 54.48549 | -30.25081 | 37536 ft | 474 kts | 77° |
| 2026-05-08 15:48 | 54.49536 | -30.08135 | 37514 ft | 474 kts | 77° |
| 2026-05-08 15:49 | 54.50164 | -29.96901 | 37509 ft | 474 kts | 78° |
| 2026-05-08 15:49 | 54.50641 | -29.85575 | 37508 ft | 475 kts | 79° |
| 2026-05-08 15:50 | 54.51058 | -29.74214 | 37505 ft | 475 kts | 79° |
| 2026-05-08 15:50 | 54.51478 | -29.62873 | 37516 ft | 475 kts | 79° |
| 2026-05-08 15:51 | 54.51902 | -29.51528 | 37525 ft | 475 kts | 79° |
| 2026-05-08 15:51 | 54.52320 | -29.40204 | 37498 ft | 473 kts | 79° |
| 2026-05-08 15:52 | 54.52724 | -29.28970 | 37503 ft | 472 kts | 79° |
| 2026-05-08 15:52 | 54.53119 | -29.17689 | 37493 ft | 472 kts | 79° |
| 2026-05-08 15:53 | 54.53504 | -29.06401 | 37507 ft | 471 kts | 79° |
| 2026-05-08 15:53 | 54.53877 | -28.95119 | 37502 ft | 471 kts | 79° |
| 2026-05-08 15:54 | 54.54240 | -28.83849 | 37498 ft | 471 kts | 79° |
| 2026-05-08 15:54 | 54.54592 | -28.72588 | 37496 ft | 471 kts | 79° |
| 2026-05-08 15:55 | 54.54931 | -28.61403 | 37496 ft | 471 kts | 79° |
| 2026-05-08 15:55 | 54.55425 | -28.44478 | 37496 ft | 472 kts | 79° |
| 2026-05-08 15:56 | 54.55741 | -28.33184 | 37494 ft | 472 kts | 79° |
| 2026-05-08 15:56 | 54.56046 | -28.21883 | 37495 ft | 473 kts | 80° |
| 2026-05-08 15:57 | 54.56342 | -28.10550 | 37490 ft | 473 kts | 80° |
| 2026-05-08 15:57 | 54.56624 | -27.99305 | 37491 ft | 473 kts | 80° |
| 2026-05-08 15:58 | 54.56899 | -27.87982 | 37491 ft | 473 kts | 80° |
| 2026-05-08 15:58 | 54.57162 | -27.76657 | 37484 ft | 473 kts | 80° |
| 2026-05-08 15:59 | 54.57415 | -27.65330 | 37478 ft | 472 kts | 80° |
| 2026-05-08 15:59 | 54.57657 | -27.54022 | 37480 ft | 472 kts | 80° |
| 2026-05-08 16:00 | 54.57889 | -27.42690 | 37478 ft | 472 kts | 80° |
| 2026-05-08 16:00 | 54.58109 | -27.31454 | 37507 ft | 472 kts | 80° |
| 2026-05-08 16:01 | 54.58321 | -27.20121 | 37477 ft | 473 kts | 81° |
| 2026-05-08 16:01 | 54.58521 | -27.08790 | 37469 ft | 473 kts | 81° |
| 2026-05-08 16:02 | 54.58711 | -26.97446 | 37469 ft | 474 kts | 81° |
| 2026-05-08 16:02 | 54.58891 | -26.86089 | 37469 ft | 474 kts | 81° |
| 2026-05-08 16:03 | 54.59060 | -26.74728 | 37489 ft | 474 kts | 81° |
| 2026-05-08 16:03 | 54.59218 | -26.63358 | 37462 ft | 474 kts | 81° |
| 2026-05-08 16:04 | 54.59366 | -26.51979 | 37458 ft | 474 kts | 81° |
| 2026-05-08 16:04 | 54.59502 | -26.40615 | 37446 ft | 474 kts | 81° |
| 2026-05-08 16:05 | 54.59628 | -26.29339 | 37458 ft | 473 kts | 81° |
| 2026-05-08 16:05 | 54.59744 | -26.17972 | 37452 ft | 473 kts | 82° |
| 2026-05-08 16:06 | 54.59850 | -26.06608 | 37459 ft | 474 kts | 82° |
| 2026-05-08 16:06 | 54.59944 | -25.95244 | 37449 ft | 474 kts | 82° |
| 2026-05-08 16:07 | 54.60028 | -25.83883 | 37447 ft | 474 kts | 82° |
| 2026-05-08 16:07 | 54.60100 | -25.72594 | 37460 ft | 473 kts | 82° |
| 2026-05-08 16:08 | 54.60163 | -25.61228 | 37439 ft | 473 kts | 82° |
| 2026-05-08 16:08 | 54.60215 | -25.49875 | 37448 ft | 473 kts | 83° |
| 2026-05-08 16:09 | 54.60250 | -25.40417 | 37436 ft | 473 kts | 83° |
| 2026-05-08 16:09 | 54.60286 | -25.27222 | 37432 ft | 472 kts | 83° |
| 2026-05-08 16:10 | 54.60306 | -25.15897 | 37433 ft | 471 kts | 83° |
| 2026-05-08 16:10 | 54.60316 | -25.04588 | 37425 ft | 471 kts | 83° |
| 2026-05-08 16:11 | 54.60315 | -24.93288 | 37449 ft | 471 kts | 84° |
| 2026-05-08 16:11 | 54.60304 | -24.82027 | 37432 ft | 472 kts | 84° |
| 2026-05-08 16:12 | 54.60282 | -24.70706 | 37423 ft | 472 kts | 84° |
| 2026-05-08 16:12 | 54.60249 | -24.59377 | 37419 ft | 472 kts | 84° |
| 2026-05-08 16:13 | 54.60206 | -24.48052 | 37438 ft | 472 kts | 84° |
| 2026-05-08 16:13 | 54.60153 | -24.36806 | 37458 ft | 472 kts | 84° |
| 2026-05-08 16:14 | 54.60089 | -24.25468 | 37422 ft | 473 kts | 84° |
| 2026-05-08 16:14 | 54.60013 | -24.14129 | 37412 ft | 473 kts | 84° |
| 2026-05-08 16:15 | 54.59927 | -24.02785 | 37413 ft | 473 kts | 84° |
| 2026-05-08 16:15 | 54.59831 | -23.91443 | 37412 ft | 473 kts | 84° |
| 2026-05-08 16:16 | 54.59724 | -23.80110 | 37407 ft | 473 kts | 85° |
| 2026-05-08 16:16 | 54.59608 | -23.68754 | 37410 ft | 474 kts | 85° |
| 2026-05-08 16:17 | 54.59501 | -23.59307 | 37392 ft | 470 kts | 85° |
| 2026-05-08 16:17 | 54.59338 | -23.46381 | 37389 ft | 460 kts | 85° |
| 2026-05-08 16:18 | 54.59194 | -23.35413 | 37389 ft | 455 kts | 85° |
| 2026-05-08 16:18 | 54.59047 | -23.24407 | 37408 ft | 465 kts | 85° |
| 2026-05-08 16:19 | 54.58884 | -23.13210 | 37391 ft | 466 kts | 86° |
| 2026-05-08 16:19 | 54.58707 | -23.01971 | 37404 ft | 477 kts | 86° |
| 2026-05-08 16:20 | 54.58514 | -22.90449 | 37392 ft | 482 kts | 86° |
| 2026-05-08 16:20 | 54.58304 | -22.78877 | 37387 ft | 483 kts | 86° |
| 2026-05-08 16:21 | 54.58085 | -22.67304 | 37378 ft | 482 kts | 87° |
| 2026-05-08 16:21 | 54.57857 | -22.55789 | 37378 ft | 480 kts | 87° |
| 2026-05-08 16:22 | 54.57620 | -22.44302 | 37376 ft | 478 kts | 87° |
| 2026-05-08 16:22 | 54.57374 | -22.32853 | 37377 ft | 477 kts | 87° |
| 2026-05-08 16:23 | 54.57117 | -22.21438 | 37377 ft | 476 kts | 87° |
| 2026-05-08 16:23 | 54.56850 | -22.10030 | 37367 ft | 474 kts | 87° |
| 2026-05-08 16:24 | 54.56573 | -21.98830 | 37392 ft | 464 kts | 88° |
| 2026-05-08 16:24 | 54.56293 | -21.87754 | 37377 ft | 461 kts | 88° |
| 2026-05-08 16:25 | 54.56006 | -21.76759 | 37362 ft | 457 kts | 88° |
| 2026-05-08 16:25 | 54.55712 | -21.65912 | 37357 ft | 454 kts | 88° |
| 2026-05-08 16:26 | 54.55409 | -21.55069 | 37352 ft | 451 kts | 88° |
| 2026-05-08 16:26 | 54.55097 | -21.44271 | 37351 ft | 449 kts | 89° |
| 2026-05-08 16:27 | 54.54779 | -21.33595 | 37368 ft | 447 kts | 89° |
| 2026-05-08 16:27 | 54.54451 | -21.22908 | 37353 ft | 446 kts | 89° |
| 2026-05-08 16:28 | 54.54115 | -21.12261 | 37349 ft | 444 kts | 89° |
| 2026-05-08 16:28 | 54.53770 | -21.01636 | 37345 ft | 443 kts | 89° |
| 2026-05-08 16:29 | 54.53420 | -20.91132 | 37350 ft | 442 kts | 89° |
| 2026-05-08 16:29 | 54.53059 | -20.80582 | 37364 ft | 441 kts | 90° |
| 2026-05-08 16:30 | 54.52690 | -20.70051 | 37350 ft | 440 kts | 90° |
| 2026-05-08 16:30 | 54.52376 | -20.61285 | 37346 ft | 445 kts | 90° |
| 2026-05-08 16:31 | 54.51982 | -20.50471 | 37366 ft | 460 kts | 90° |
| 2026-05-08 16:31 | 54.51492 | -20.37442 | 37363 ft | 477 kts | 91° |
| 2026-05-08 16:32 | 54.51119 | -20.27805 | 37350 ft | 487 kts | 91° |
| 2026-05-08 16:32 | 54.50656 | -20.16108 | 37342 ft | 491 kts | 91° |
| 2026-05-08 16:33 | 54.50170 | -20.04443 | 37334 ft | 493 kts | 93° |
| 2026-05-08 16:33 | 54.48861 | -19.92854 | 37329 ft | 496 kts | 104° |
| 2026-05-08 16:34 | 54.46822 | -19.81543 | 37332 ft | 494 kts | 105° |
| 2026-05-08 16:34 | 54.44765 | -19.70278 | 37326 ft | 493 kts | 105° |
| 2026-05-08 16:35 | 54.42736 | -19.59025 | 37334 ft | 492 kts | 105° |
| 2026-05-08 16:35 | 54.40731 | -19.47850 | 37317 ft | 492 kts | 105° |
| 2026-05-08 16:36 | 54.38708 | -19.36626 | 37324 ft | 492 kts | 105° |
| 2026-05-08 16:36 | 54.36675 | -19.25417 | 37317 ft | 493 kts | 105° |
| 2026-05-08 16:37 | 54.34625 | -19.14194 | 37313 ft | 493 kts | 105° |
| 2026-05-08 16:37 | 54.32561 | -19.02970 | 37311 ft | 493 kts | 105° |
| 2026-05-08 16:38 | 54.30501 | -18.91828 | 37322 ft | 494 kts | 106° |
| 2026-05-08 16:38 | 54.28409 | -18.80585 | 37304 ft | 497 kts | 107° |
| 2026-05-08 16:39 | 54.26296 | -18.69293 | 37309 ft | 499 kts | 106° |
| 2026-05-08 16:39 | 54.24161 | -18.57951 | 37312 ft | 501 kts | 107° |
| 2026-05-08 16:40 | 54.22015 | -18.46628 | 37295 ft | 501 kts | 106° |
| 2026-05-08 16:40 | 54.19859 | -18.35314 | 37301 ft | 499 kts | 107° |
| 2026-05-08 16:41 | 54.17713 | -18.24121 | 37299 ft | 499 kts | 108° |
| 2026-05-08 16:42 | 54.14445 | -18.07194 | 37271 ft | 502 kts | 108° |
| 2026-05-08 16:42 | 54.12245 | -17.95885 | 37294 ft | 503 kts | 108° |
| 2026-05-08 16:43 | 54.10029 | -17.84562 | 37283 ft | 504 kts | 108° |
| 2026-05-08 16:43 | 54.07804 | -17.73261 | 37280 ft | 503 kts | 109° |
| 2026-05-08 16:44 | 54.05573 | -17.61988 | 37287 ft | 502 kts | 110° |
| 2026-05-08 16:44 | 54.03346 | -17.50808 | 37265 ft | 501 kts | 109° |
| 2026-05-08 16:45 | 54.01097 | -17.39575 | 37275 ft | 501 kts | 109° |
| 2026-05-08 16:45 | 53.98839 | -17.28365 | 37266 ft | 501 kts | 110° |
| 2026-05-08 16:46 | 53.96572 | -17.17172 | 37270 ft | 501 kts | 110° |
| 2026-05-08 16:46 | 53.94297 | -17.06006 | 37247 ft | 501 kts | 110° |
| 2026-05-08 16:47 | 53.92012 | -16.94852 | 37262 ft | 500 kts | 110° |
| 2026-05-08 16:47 | 53.89716 | -16.83708 | 37261 ft | 501 kts | 111° |
| 2026-05-08 16:48 | 53.87411 | -16.72581 | 37260 ft | 500 kts | 111° |
| 2026-05-08 16:48 | 53.85096 | -16.61468 | 37243 ft | 500 kts | 111° |
| 2026-05-08 16:49 | 53.82786 | -16.50438 | 37253 ft | 499 kts | 111° |
| 2026-05-08 16:49 | 53.80456 | -16.39379 | 37249 ft | 499 kts | 112° |
| 2026-05-08 16:50 | 53.78115 | -16.28321 | 37247 ft | 498 kts | 111° |
| 2026-05-08 16:50 | 53.75770 | -16.17310 | 37244 ft | 498 kts | 112° |
| 2026-05-08 16:51 | 53.73413 | -16.06300 | 37242 ft | 498 kts | 112° |
| 2026-05-08 16:51 | 53.71064 | -15.95386 | 37246 ft | 498 kts | 112° |
| 2026-05-08 16:52 | 53.68687 | -15.84402 | 37224 ft | 498 kts | 112° |
| 2026-05-08 16:52 | 53.66301 | -15.73433 | 37231 ft | 497 kts | 113° |
| 2026-05-08 16:53 | 53.62711 | -15.57036 | 37232 ft | 497 kts | 113° |
| 2026-05-08 16:53 | 53.60302 | -15.46109 | 37228 ft | 497 kts | 113° |
| 2026-05-08 16:54 | 53.57897 | -15.35256 | 37228 ft | 497 kts | 113° |
| 2026-05-08 16:54 | 53.55467 | -15.24347 | 37224 ft | 497 kts | 113° |
| 2026-05-08 16:55 | 53.53034 | -15.13469 | 37199 ft | 497 kts | 114° |
| 2026-05-08 16:55 | 53.50857 | -15.02430 | 37215 ft | 500 kts | 105° |
| 2026-05-08 16:56 | 53.49927 | -14.90883 | 37216 ft | 504 kts | 94° |
| 2026-05-08 16:56 | 53.49963 | -14.79092 | 37227 ft | 505 kts | 91° |
| 2026-05-08 16:57 | 53.50061 | -14.67288 | 37219 ft | 505 kts | 92° |
| 2026-05-08 16:57 | 53.50099 | -14.55491 | 37199 ft | 506 kts | 92° |
| 2026-05-08 16:58 | 53.50098 | -14.43663 | 37206 ft | 506 kts | 93° |
| 2026-05-08 16:58 | 53.50084 | -14.31837 | 37215 ft | 506 kts | 93° |
| 2026-05-08 16:59 | 53.50062 | -14.19984 | 37208 ft | 507 kts | 93° |
| 2026-05-08 16:59 | 53.50031 | -14.08145 | 37209 ft | 507 kts | 93° |
| 2026-05-08 17:00 | 53.50068 | -13.96359 | 37201 ft | 508 kts | 91° |
| 2026-05-08 17:00 | 53.50431 | -13.84469 | 37211 ft | 509 kts | 89° |
| 2026-05-08 17:01 | 53.50850 | -13.72574 | 37200 ft | 510 kts | 89° |
| 2026-05-08 17:01 | 53.51238 | -13.60671 | 37204 ft | 510 kts | 90° |
| 2026-05-08 17:02 | 53.51593 | -13.48757 | 37181 ft | 511 kts | 90° |
| 2026-05-08 17:02 | 53.51929 | -13.36832 | 37203 ft | 511 kts | 90° |
| 2026-05-08 17:03 | 53.52252 | -13.24971 | 37199 ft | 511 kts | 90° |
| 2026-05-08 17:03 | 53.52566 | -13.13024 | 37185 ft | 512 kts | 90° |
| 2026-05-08 17:04 | 53.52870 | -13.01072 | 37177 ft | 511 kts | 91° |
| 2026-05-08 17:04 | 53.53161 | -12.89119 | 37186 ft | 512 kts | 91° |
| 2026-05-08 17:05 | 53.53440 | -12.77137 | 37186 ft | 512 kts | 91° |
| 2026-05-08 17:05 | 53.53706 | -12.65235 | 37186 ft | 512 kts | 91° |
| 2026-05-08 17:06 | 53.53962 | -12.53264 | 37185 ft | 513 kts | 91° |
| 2026-05-08 17:06 | 53.54207 | -12.41287 | 37175 ft | 513 kts | 91° |
| 2026-05-08 17:07 | 53.54439 | -12.29289 | 37182 ft | 513 kts | 91° |
| 2026-05-08 17:07 | 53.54660 | -12.17283 | 37179 ft | 513 kts | 92° |
| 2026-05-08 17:08 | 53.54867 | -12.05365 | 37177 ft | 513 kts | 92° |
| 2026-05-08 17:08 | 53.55064 | -11.93353 | 37168 ft | 514 kts | 92° |
| 2026-05-08 17:09 | 53.55157 | -11.87320 | 37302 ft | 517 kts | 92° |
| 2026-05-08 17:09 | 53.55249 | -11.81270 | 37666 ft | 515 kts | 91° |
| 2026-05-08 17:09 | 53.55337 | -11.75264 | 38150 ft | 512 kts | 91° |
| 2026-05-08 17:09 | 53.55422 | -11.69306 | 38619 ft | 508 kts | 91° |
| 2026-05-08 17:10 | 53.55504 | -11.63373 | 39005 ft | 506 kts | 91° |
| 2026-05-08 17:10 | 53.55581 | -11.57447 | 39103 ft | 508 kts | 91° |
| 2026-05-08 17:10 | 53.55726 | -11.45606 | 39161 ft | 510 kts | 91° |
| 2026-05-08 17:11 | 53.55862 | -11.33704 | 39160 ft | 508 kts | 91° |
| 2026-05-08 17:11 | 53.55985 | -11.21849 | 39165 ft | 506 kts | 91° |
| 2026-05-08 17:12 | 53.56097 | -11.09994 | 39164 ft | 506 kts | 91° |
| 2026-05-08 17:12 | 53.56196 | -10.98155 | 39163 ft | 506 kts | 91° |
| 2026-05-08 17:13 | 53.56284 | -10.86314 | 39158 ft | 506 kts | 91° |
| 2026-05-08 17:13 | 53.56360 | -10.74543 | 39161 ft | 507 kts | 92° |
| 2026-05-08 17:14 | 53.56424 | -10.62673 | 39154 ft | 507 kts | 92° |
| 2026-05-08 17:14 | 53.56477 | -10.50805 | 39153 ft | 508 kts | 92° |
| 2026-05-08 17:15 | 53.56519 | -10.38905 | 39130 ft | 508 kts | 92° |
| 2026-05-08 17:15 | 53.56549 | -10.27013 | 39141 ft | 508 kts | 92° |
| 2026-05-08 17:16 | 53.56566 | -10.15109 | 39143 ft | 509 kts | 92° |
| 2026-05-08 17:16 | 53.56572 | -10.03277 | 39138 ft | 509 kts | 92° |
| 2026-05-08 17:17 | 53.56567 | -9.91366 | 39140 ft | 509 kts | 92° |
| 2026-05-08 17:17 | 53.56549 | -9.79446 | 39130 ft | 509 kts | 92° |
| 2026-05-08 17:18 | 53.56519 | -9.67513 | 39137 ft | 509 kts | 93° |
| 2026-05-08 17:18 | 53.56478 | -9.55657 | 39124 ft | 509 kts | 93° |
| 2026-05-08 17:19 | 53.56424 | -9.43750 | 39123 ft | 509 kts | 93° |
| 2026-05-08 17:19 | 53.56360 | -9.31838 | 39110 ft | 509 kts | 93° |
| 2026-05-08 17:20 | 53.56285 | -9.20008 | 39117 ft | 509 kts | 93° |
| 2026-05-08 17:20 | 53.56196 | -9.08103 | 39113 ft | 509 kts | 93° |
| 2026-05-08 17:21 | 53.56096 | -8.96196 | 39116 ft | 509 kts | 93° |
| 2026-05-08 17:21 | 53.55983 | -8.84297 | 39111 ft | 509 kts | 94° |
| 2026-05-08 17:22 | 53.55860 | -8.72460 | 39105 ft | 509 kts | 94° |
| 2026-05-08 17:22 | 53.55724 | -8.60545 | 39111 ft | 509 kts | 94° |
| 2026-05-08 17:23 | 53.55576 | -8.48627 | 39105 ft | 510 kts | 94° |
| 2026-05-08 17:23 | 53.55417 | -8.36705 | 39109 ft | 510 kts | 94° |
| 2026-05-08 17:24 | 53.55275 | -8.26784 | 39092 ft | 510 kts | 94° |
| 2026-05-08 17:24 | 53.55093 | -8.14844 | 39104 ft | 511 kts | 94° |
| 2026-05-08 17:25 | 53.54899 | -8.02902 | 39105 ft | 511 kts | 94° |
| 2026-05-08 17:25 | 53.54694 | -7.90943 | 39105 ft | 511 kts | 94° |
| 2026-05-08 17:26 | 53.54478 | -7.79061 | 39104 ft | 511 kts | 94° |
| 2026-05-08 17:26 | 53.54249 | -7.67121 | 39102 ft | 511 kts | 94° |
| 2026-05-08 17:27 | 53.54007 | -7.55160 | 39104 ft | 511 kts | 94° |
| 2026-05-08 17:27 | 53.53754 | -7.43209 | 39109 ft | 511 kts | 94° |
| 2026-05-08 17:28 | 53.53485 | -7.31256 | 39105 ft | 511 kts | 95° |
| 2026-05-08 17:28 | 53.53205 | -7.19393 | 39099 ft | 511 kts | 95° |
| 2026-05-08 17:29 | 53.52917 | -7.07446 | 39096 ft | 511 kts | 95° |
| 2026-05-08 17:29 | 53.52618 | -6.95527 | 39105 ft | 510 kts | 95° |
| 2026-05-08 17:30 | 53.52305 | -6.83636 | 39107 ft | 509 kts | 95° |
| 2026-05-08 17:30 | 53.51981 | -6.71744 | 39102 ft | 508 kts | 95° |
| 2026-05-08 17:31 | 53.51647 | -6.59879 | 39108 ft | 507 kts | 95° |
| 2026-05-08 17:31 | 53.51304 | -6.48103 | 39103 ft | 507 kts | 96° |
| 2026-05-08 17:32 | 53.50947 | -6.36259 | 39122 ft | 507 kts | 96° |
| 2026-05-08 17:32 | 53.50579 | -6.24417 | 39117 ft | 508 kts | 96° |
| 2026-05-08 17:33 | 53.50197 | -6.12567 | 39116 ft | 508 kts | 96° |
| 2026-05-08 17:33 | 53.49803 | -6.00705 | 39119 ft | 508 kts | 96° |
| 2026-05-08 17:34 | 53.49404 | -5.88911 | 39115 ft | 509 kts | 96° |
| 2026-05-08 17:34 | 53.49020 | -5.77751 | 39115 ft | 510 kts | 96° |
| 2026-05-08 17:35 | 53.48594 | -5.65947 | 39118 ft | 510 kts | 96° |
| 2026-05-08 17:35 | 53.48223 | -5.55931 | 39121 ft | 510 kts | 96° |
| 2026-05-08 17:36 | 53.47747 | -5.44045 | 39113 ft | 510 kts | 97° |
| 2026-05-08 17:36 | 53.47150 | -5.32250 | 39115 ft | 510 kts | 97° |
| 2026-05-08 17:37 | 53.46516 | -5.20400 | 39117 ft | 510 kts | 98° |
| 2026-05-08 17:37 | 53.45884 | -5.08549 | 39102 ft | 509 kts | 97° |
| 2026-05-08 17:38 | 53.45252 | -4.96694 | 39111 ft | 510 kts | 97° |
| 2026-05-08 17:38 | 53.44616 | -4.84912 | 39098 ft | 510 kts | 97° |
| 2026-05-08 17:39 | 53.43963 | -4.73066 | 39093 ft | 510 kts | 97° |
| 2026-05-08 17:39 | 53.43298 | -4.61225 | 39089 ft | 510 kts | 97° |
| 2026-05-08 17:40 | 53.42620 | -4.49380 | 39101 ft | 510 kts | 97° |
| 2026-05-08 17:40 | 53.41931 | -4.37538 | 39101 ft | 510 kts | 98° |
| 2026-05-08 17:41 | 53.41234 | -4.25775 | 39098 ft | 510 kts | 98° |
| 2026-05-08 17:41 | 53.40521 | -4.13933 | 39095 ft | 510 kts | 98° |
| 2026-05-08 17:42 | 53.39798 | -4.02121 | 39088 ft | 509 kts | 98° |
| 2026-05-08 17:42 | 53.39063 | -3.90315 | 39095 ft | 509 kts | 98° |
| 2026-05-08 17:43 | 53.38316 | -3.78505 | 39090 ft | 509 kts | 98° |
| 2026-05-08 17:43 | 53.37557 | -3.66695 | 39092 ft | 509 kts | 98° |
| 2026-05-08 17:44 | 53.36788 | -3.54907 | 39086 ft | 509 kts | 98° |
| 2026-05-08 17:44 | 53.36012 | -3.43196 | 39089 ft | 509 kts | 98° |
| 2026-05-08 17:45 | 53.35219 | -3.31412 | 39086 ft | 510 kts | 98° |
| 2026-05-08 17:45 | 53.34413 | -3.19614 | 39078 ft | 510 kts | 98° |
| 2026-05-08 17:46 | 53.33595 | -3.07813 | 39073 ft | 510 kts | 98° |
| 2026-05-08 17:46 | 53.32766 | -2.96029 | 39072 ft | 510 kts | 98° |
| 2026-05-08 17:47 | 53.31926 | -2.84238 | 39078 ft | 510 kts | 98° |
| 2026-05-08 17:47 | 53.31217 | -2.74429 | 39079 ft | 510 kts | 98° |
| 2026-05-08 17:48 | 53.30213 | -2.60721 | 39077 ft | 511 kts | 98° |
| 2026-05-08 17:48 | 53.29336 | -2.48944 | 39073 ft | 510 kts | 98° |
| 2026-05-08 17:49 | 53.28448 | -2.37155 | 39077 ft | 510 kts | 98° |
| 2026-05-08 17:49 | 53.27549 | -2.25393 | 39075 ft | 510 kts | 98° |
| 2026-05-08 17:50 | 53.26645 | -2.13715 | 39075 ft | 509 kts | 98° |
| 2026-05-08 17:50 | 53.25725 | -2.01980 | 39075 ft | 509 kts | 98° |
| 2026-05-08 17:51 | 53.24793 | -1.90248 | 39080 ft | 509 kts | 98° |
| 2026-05-08 17:51 | 53.23852 | -1.78554 | 39067 ft | 508 kts | 98° |
| 2026-05-08 17:52 | 53.22902 | -1.66888 | 39078 ft | 507 kts | 98° |
| 2026-05-08 17:53 | 53.21454 | -1.49390 | 39078 ft | 507 kts | 98° |
| 2026-05-08 17:53 | 53.20476 | -1.37746 | 39086 ft | 506 kts | 98° |
| 2026-05-08 17:54 | 53.19493 | -1.26183 | 39084 ft | 507 kts | 98° |
| 2026-05-08 17:54 | 53.18491 | -1.14536 | 39082 ft | 507 kts | 98° |
| 2026-05-08 17:55 | 53.17479 | -1.02905 | 39080 ft | 507 kts | 99° |
| 2026-05-08 17:55 | 53.16454 | -0.91266 | 39098 ft | 507 kts | 99° |
| 2026-05-08 17:56 | 53.15419 | -0.79644 | 39096 ft | 506 kts | 99° |
| 2026-05-08 17:56 | 53.14373 | -0.68039 | 39100 ft | 506 kts | 99° |
| 2026-05-08 17:57 | 53.13324 | -0.56519 | 39104 ft | 505 kts | 99° |
| 2026-05-08 17:57 | 53.12257 | -0.44943 | 39098 ft | 505 kts | 99° |
| 2026-05-08 17:58 | 53.11182 | -0.33392 | 39109 ft | 505 kts | 99° |
| 2026-05-08 17:58 | 53.10095 | -0.21850 | 39103 ft | 505 kts | 99° |
| 2026-05-08 17:59 | 53.08997 | -0.10307 | 39098 ft | 505 kts | 99° |
| 2026-05-08 17:59 | 53.07895 | 0.01151 | 39112 ft | 504 kts | 99° |
| 2026-05-08 18:00 | 53.06776 | 0.12662 | 39115 ft | 504 kts | 99° |
| 2026-05-08 18:00 | 53.05079 | 0.29905 | 39110 ft | 503 kts | 99° |
| 2026-05-08 18:01 | 53.03935 | 0.41377 | 39115 ft | 503 kts | 99° |
| 2026-05-08 18:01 | 53.02780 | 0.52842 | 39107 ft | 502 kts | 99° |
| 2026-05-08 18:02 | 53.01814 | 0.62346 | 39116 ft | 502 kts | 99° |
| 2026-05-08 18:02 | 53.00438 | 0.75758 | 39118 ft | 511 kts | 99° |
| 2026-05-08 18:03 | 52.99223 | 0.87472 | 39136 ft | 517 kts | 99° |
| 2026-05-08 18:03 | 52.97988 | 0.99270 | 39131 ft | 520 kts | 100° |
| 2026-05-08 18:04 | 52.96671 | 1.11087 | 39131 ft | 521 kts | 101° |
| 2026-05-08 18:04 | 52.95287 | 1.22801 | 39129 ft | 520 kts | 101° |
| 2026-05-08 18:05 | 52.93894 | 1.34544 | 39123 ft | 518 kts | 101° |
| 2026-05-08 18:05 | 52.92508 | 1.46234 | 39125 ft | 515 kts | 101° |
| 2026-05-08 18:06 | 52.91123 | 1.57854 | 39127 ft | 513 kts | 101° |
| 2026-05-08 18:06 | 52.89736 | 1.69383 | 38964 ft | 503 kts | 101° |
| 2026-05-08 18:07 | 52.89063 | 1.74944 | 38538 ft | 496 kts | 101° |
| 2026-05-08 18:07 | 52.88378 | 1.80572 | 37455 ft | 501 kts | 101° |
| 2026-05-08 18:07 | 52.87826 | 1.85093 | 36451 ft | 510 kts | 100° |
| 2026-05-08 18:07 | 52.87138 | 1.90698 | 35371 ft | 518 kts | 100° |
| 2026-05-08 18:08 | 52.86441 | 1.96371 | 34697 ft | 524 kts | 100° |
| 2026-05-08 18:08 | 52.85742 | 2.02021 | 34438 ft | 523 kts | 99° |
| 2026-05-08 18:08 | 52.85066 | 2.07464 | 34266 ft | 517 kts | 99° |
| 2026-05-08 18:08 | 52.84403 | 2.12784 | 33941 ft | 511 kts | 99° |
| 2026-05-08 18:09 | 52.83687 | 2.18510 | 33333 ft | 506 kts | 99° |
| 2026-05-08 18:09 | 52.82974 | 2.24199 | 32410 ft | 507 kts | 99° |
| 2026-05-08 18:09 | 52.82255 | 2.29917 | 31543 ft | 508 kts | 100° |
| 2026-05-08 18:09 | 52.81776 | 2.33704 | 31069 ft | 505 kts | 100° |
| 2026-05-08 18:10 | 52.80827 | 2.41174 | 30362 ft | 496 kts | 100° |
| 2026-05-08 18:10 | 52.80120 | 2.46716 | 29811 ft | 489 kts | 100° |
| 2026-05-08 18:10 | 52.79419 | 2.52180 | 29182 ft | 483 kts | 100° |
| 2026-05-08 18:10 | 52.78721 | 2.57585 | 28586 ft | 477 kts | 101° |
| 2026-05-08 18:11 | 52.78262 | 2.61123 | 28187 ft | 473 kts | 101° |
| 2026-05-08 18:11 | 52.77573 | 2.66420 | 27563 ft | 468 kts | 101° |
| 2026-05-08 18:11 | 52.76893 | 2.71644 | 26963 ft | 464 kts | 101° |
| 2026-05-08 18:11 | 52.76215 | 2.76834 | 26416 ft | 458 kts | 101° |
| 2026-05-08 18:12 | 52.75539 | 2.82000 | 26229 ft | 463 kts | 101° |
| 2026-05-08 18:12 | 52.74968 | 2.87204 | 25930 ft | 458 kts | 96° |
| 2026-05-08 18:12 | 52.74664 | 2.92304 | 25160 ft | 436 kts | 93° |
| 2026-05-08 18:12 | 52.74479 | 2.97148 | 24757 ft | 407 kts | 92° |
| 2026-05-08 18:13 | 52.74334 | 3.01740 | 24551 ft | 396 kts | 92° |
| 2026-05-08 18:13 | 52.74201 | 3.06198 | 24346 ft | 381 kts | 92° |
| 2026-05-08 18:13 | 52.74078 | 3.10430 | 24024 ft | 368 kts | 92° |
| 2026-05-08 18:13 | 52.73963 | 3.14585 | 23375 ft | 357 kts | 92° |
| 2026-05-08 18:14 | 52.73859 | 3.18627 | 22509 ft | 350 kts | 92° |
| 2026-05-08 18:14 | 52.73766 | 3.22631 | 21620 ft | 348 kts | 92° |
| 2026-05-08 18:14 | 52.73683 | 3.26598 | 21389 ft | 345 kts | 92° |
| 2026-05-08 18:14 | 52.73607 | 3.30573 | 21206 ft | 347 kts | 92° |
| 2026-05-08 18:15 | 52.73534 | 3.34557 | 21124 ft | 347 kts | 92° |
| 2026-05-08 18:15 | 52.73465 | 3.38470 | 20643 ft | 336 kts | 92° |
| 2026-05-08 18:15 | 52.73403 | 3.42269 | 19982 ft | 327 kts | 92° |
| 2026-05-08 18:15 | 52.73349 | 3.46004 | 19133 ft | 325 kts | 92° |
| 2026-05-08 18:16 | 52.73305 | 3.49738 | 18223 ft | 328 kts | 92° |
| 2026-05-08 18:16 | 52.73266 | 3.53555 | 17616 ft | 333 kts | 92° |
| 2026-05-08 18:16 | 52.73231 | 3.57361 | 17259 ft | 330 kts | 92° |
| 2026-05-08 18:16 | 52.73198 | 3.61131 | 16950 ft | 326 kts | 92° |
| 2026-05-08 18:17 | 52.73167 | 3.64814 | 16585 ft | 324 kts | 92° |
| 2026-05-08 18:17 | 52.73135 | 3.68532 | 16206 ft | 323 kts | 92° |
| 2026-05-08 18:17 | 52.73102 | 3.72224 | 15837 ft | 321 kts | 92° |
| 2026-05-08 18:17 | 52.73069 | 3.75903 | 15474 ft | 320 kts | 92° |
| 2026-05-08 18:18 | 52.73036 | 3.79571 | 15129 ft | 318 kts | 92° |
| 2026-05-08 18:18 | 52.72998 | 3.83206 | 14786 ft | 314 kts | 94° |
| 2026-05-08 18:18 | 52.72515 | 3.86665 | 14257 ft | 312 kts | 120° |
| 2026-05-08 18:18 | 52.71130 | 3.89353 | 13828 ft | 307 kts | 146° |
| 2026-05-08 18:19 | 52.69274 | 3.90976 | 13493 ft | 299 kts | 164° |
| 2026-05-08 18:19 | 52.67267 | 3.91783 | 13148 ft | 295 kts | 170° |
| 2026-05-08 18:19 | 52.65252 | 3.92439 | 12755 ft | 295 kts | 170° |
| 2026-05-08 18:19 | 52.63261 | 3.93079 | 12415 ft | 294 kts | 170° |
| 2026-05-08 18:20 | 52.61259 | 3.93742 | 12051 ft | 293 kts | 169° |
| 2026-05-08 18:20 | 52.59265 | 3.94420 | 11719 ft | 291 kts | 169° |
| 2026-05-08 18:20 | 52.57289 | 3.95099 | 11397 ft | 289 kts | 169° |
| 2026-05-08 18:20 | 52.55321 | 3.95776 | 11038 ft | 289 kts | 169° |
| 2026-05-08 18:21 | 52.53445 | 3.96822 | 10589 ft | 288 kts | 149° |
| 2026-05-08 18:21 | 52.51879 | 3.98857 | 10183 ft | 287 kts | 141° |
| 2026-05-08 18:21 | 52.50339 | 4.00913 | 9964 ft | 283 kts | 142° |
| 2026-05-08 18:21 | 52.48832 | 4.02889 | 9821 ft | 279 kts | 142° |
| 2026-05-08 18:22 | 52.47308 | 4.04882 | 9722 ft | 282 kts | 142° |
| 2026-05-08 18:22 | 52.45759 | 4.06897 | 9628 ft | 285 kts | 142° |
| 2026-05-08 18:22 | 52.44199 | 4.08936 | 9517 ft | 288 kts | 142° |
| 2026-05-08 18:22 | 52.42628 | 4.11002 | 9428 ft | 290 kts | 142° |
| 2026-05-08 18:23 | 52.41094 | 4.13165 | 9342 ft | 292 kts | 138° |
| 2026-05-08 18:23 | 52.39612 | 4.15457 | 9239 ft | 293 kts | 137° |
| 2026-05-08 18:23 | 52.38146 | 4.17745 | 9115 ft | 286 kts | 137° |
| 2026-05-08 18:23 | 52.36734 | 4.19953 | 9037 ft | 280 kts | 137° |
| 2026-05-08 18:24 | 52.35310 | 4.22185 | 8945 ft | 286 kts | 137° |
| 2026-05-08 18:24 | 52.33889 | 4.24410 | 8462 ft | 278 kts | 137° |
| 2026-05-08 18:24 | 52.32511 | 4.26565 | 7805 ft | 271 kts | 137° |
| 2026-05-08 18:24 | 52.31176 | 4.28656 | 7361 ft | 257 kts | 137° |
| 2026-05-08 18:25 | 52.29929 | 4.30621 | 7055 ft | 245 kts | 137° |
| 2026-05-08 18:25 | 52.28700 | 4.32561 | 6536 ft | 249 kts | 137° |
| 2026-05-08 18:25 | 52.27437 | 4.34550 | 6055 ft | 256 kts | 137° |
| 2026-05-08 18:25 | 52.26137 | 4.36595 | 5571 ft | 262 kts | 137° |
| 2026-05-08 18:26 | 52.24817 | 4.38639 | 5139 ft | 256 kts | 137° |
| 2026-05-08 18:26 | 52.23552 | 4.40570 | 4733 ft | 242 kts | 137° |
| 2026-05-08 18:26 | 52.22345 | 4.42391 | 4311 ft | 230 kts | 137° |
| 2026-05-08 18:26 | 52.21227 | 4.44131 | 3893 ft | 219 kts | 128° |
| 2026-05-08 18:27 | 52.20623 | 4.46310 | 3466 ft | 206 kts | 98° |
| 2026-05-08 18:27 | 52.20523 | 4.47815 | 3237 ft | 198 kts | 94° |
| 2026-05-08 18:27 | 52.20469 | 4.50676 | 2938 ft | 179 kts | 81° |
| 2026-05-08 18:27 | 52.20927 | 4.52507 | 2769 ft | 176 kts | 64° |
| 2026-05-08 18:28 | 52.21486 | 4.54307 | 2639 ft | 183 kts | 62° |
| 2026-05-08 18:28 | 52.22128 | 4.56112 | 2494 ft | 184 kts | 59° |
| 2026-05-08 18:28 | 52.22798 | 4.57870 | 2237 ft | 181 kts | 58° |
| 2026-05-08 18:28 | 52.23459 | 4.59585 | 2000 ft | 177 kts | 58° |
| 2026-05-08 18:29 | 52.24105 | 4.61258 | 1754 ft | 170 kts | 58° |
| 2026-05-08 18:29 | 52.24706 | 4.62815 | 1528 ft | 155 kts | 58° |
| 2026-05-08 18:29 | 52.25274 | 4.64291 | 1346 ft | 155 kts | 58° |
| 2026-05-08 18:29 | 52.25851 | 4.65786 | 1138 ft | 156 kts | 58° |
| 2026-05-08 18:30 | 52.26417 | 4.67254 | 918 ft | 147 kts | 57° |
| 2026-05-08 18:30 | 52.26941 | 4.68616 | 730 ft | 140 kts | 58° |
| 2026-05-08 18:30 | 52.27471 | 4.69956 | 591 ft | 143 kts | 56° |
| 2026-05-08 18:30 | 52.28004 | 4.71333 | 318 ft | 143 kts | 57° |
| 2026-05-08 18:31 | 52.28528 | 4.72740 | 150 ft | 146 kts | 57° |
| 2026-05-08 18:31 | 52.29059 | 4.74100 | 6 ft | 139 kts | 57° |
| 2026-05-08 18:31 | 52.29517 | 4.75301 | 3 ft | 107 kts | 58° |
| 2026-05-08 18:31 | 52.29831 | 4.76123 | 1 ft | 49 kts | 58° |
| 2026-05-08 18:32 | 52.29996 | 4.76500 | 3 ft | 37 kts | 40° |
| 2026-05-08 18:32 | 52.30149 | 4.76645 | 4 ft | 18 kts | 27° |
| 2026-05-08 18:32 | 52.30247 | 4.76728 | 4 ft | 14 kts | 26° |
| 2026-05-08 18:32 | 52.30313 | 4.76825 | 4 ft | 16 kts | 58° |
| 2026-05-08 18:33 | 52.30393 | 4.77035 | 4 ft | 25 kts | 58° |
| 2026-05-08 18:33 | 52.30484 | 4.77274 | 4 ft | 25 kts | 57° |
| 2026-05-08 18:33 | 52.30577 | 4.77510 | 4 ft | 25 kts | 53° |
| 2026-05-08 18:33 | 52.30735 | 4.77595 | 4 ft | 25 kts | 3° |
| 2026-05-08 18:34 | 52.30906 | 4.77614 | 4 ft | 25 kts | 2° |
| 2026-05-08 18:34 | 52.31078 | 4.77625 | 4 ft | 25 kts | 3° |
| 2026-05-08 18:34 | 52.31250 | 4.77644 | 4 ft | 25 kts | 3° |
| 2026-05-08 18:34 | 52.31419 | 4.77650 | 4 ft | 25 kts | 348° |
| 2026-05-08 18:35 | 52.31552 | 4.77481 | 4 ft | 25 kts | 303° |
| 2026-05-08 18:35 | 52.31572 | 4.77207 | 4 ft | 25 kts | 265° |
| 2026-05-08 18:35 | 52.31563 | 4.76926 | 4 ft | 25 kts | 268° |
| 2026-05-08 18:35 | 52.31553 | 4.76726 | 4 ft | 11 kts | 249° |
| 2026-05-08 18:36 | 52.31487 | 4.76674 | 4 ft | 11 kts | 191° |
| 2026-05-08 18:36 | 52.31433 | 4.76632 | 4 ft | 6 kts | 191° |
| 2026-05-08 18:36 | 52.31415 | 4.76655 | 4 ft | 4 kts | 132° |
| 2026-05-08 18:36 | 52.31396 | 4.76693 | 4 ft | 5 kts | 124° |
| 2026-05-08 18:37 | 52.31387 | 4.76715 | 4 ft | 2 kts | 124° |
| 2026-05-08 18:37 | 52.31379 | 4.76736 | 4 ft | 1 kts | 123° |
| 2026-05-08 18:37 | 52.31379 | 4.76737 | 4 ft | 0 kts | 123° |